Time;durP1;ratioP1;P1;durP2;ratioP2;P2;SDS_P1;SDS_P2;PMS_P1;PMS_P2;Temp;Humidity;BMP_temperature;BMP_pressure;BME280_temperature;BME280_humidity;BME280_pressure;Samples;Min_cycle;Max_cycle;Signal;HPM_P1;HPM_P2
2021/12/03 00:02:04;;;;;;;7.05;6.40;;;;;;;;;;5051949;28;20179;-76
2021/12/03 00:04:30;;;;;;;7.15;6.30;;;;;;;;;;5051221;28;20180;-73
2021/12/03 00:06:56;;;;;;;8.20;6.43;;;;;;;;;;5051876;28;20173;-73
2021/12/03 00:09:23;;;;;;;7.65;6.43;;;;;;;;;;5051641;28;20529;-73
2021/12/03 00:11:49;;;;;;;5.97;5.45;;;;;;;;;;5052866;28;20196;-73
2021/12/03 00:14:15;;;;;;;8.55;5.78;;;;;;;;;;5053142;28;20228;-72
2021/12/03 00:16:41;;;;;;;5.90;5.30;;;;;;;;;;5053790;28;20204;-73
2021/12/03 00:19:07;;;;;;;7.30;6.45;;;;;;;;;;5053944;28;20199;-72
2021/12/03 00:21:33;;;;;;;7.45;6.13;;;;;;;;;;5054076;28;20250;-72
2021/12/03 00:23:59;;;;;;;8.98;6.63;;;;;;;;;;5053639;28;20178;-73
2021/12/03 00:26:26;;;;;;;19.15;13.55;;;;;;;;;;5053626;28;20187;-73
2021/12/03 00:28:52;;;;;;;13.82;11.95;;;;;;;;;;5053642;28;20165;-72
2021/12/03 00:31:18;;;;;;;8.57;7.82;;;;;;;;;;5053641;28;20626;-72
2021/12/03 00:33:44;;;;;;;7.38;6.78;;;;;;;;;;5053356;28;20188;-72
2021/12/03 00:36:11;;;;;;;8.30;7.47;;;;;;;;;;5053608;28;20211;-75
2021/12/03 00:38:41;;;;;;;11.25;7.70;;;;;;;;;;5053452;28;20164;-74
2021/12/03 00:41:09;;;;;;;8.85;7.65;;;;;;;;;;5053469;28;20222;-74
2021/12/03 00:43:40;;;;;;;8.68;7.97;;;;;;;;;;5053408;28;20157;-74
2021/12/03 00:46:08;;;;;;;12.15;8.30;;;;;;;;;;5053479;28;20240;-74
2021/12/03 00:48:35;;;;;;;12.68;7.90;;;;;;;;;;5053119;28;20269;-74
2021/12/03 00:51:01;;;;;;;11.38;7.80;;;;;;;;;;5035366;28;20176;-74
2021/12/03 00:53:27;;;;;;;11.43;8.52;;;;;;;;;;5053280;28;20199;-74
2021/12/03 00:55:53;;;;;;;7.95;7.25;;;;;;;;;;5053150;28;20207;-74
2021/12/03 00:58:19;;;;;;;7.88;7.18;;;;;;;;;;5053278;28;20192;-74
2021/12/03 01:00:45;;;;;;;8.90;7.95;;;;;;;;;;5053252;28;20168;-74
2021/12/03 01:03:11;;;;;;;12.07;7.68;;;;;;;;;;5053109;28;20578;-74
2021/12/03 01:05:38;;;;;;;9.85;7.85;;;;;;;;;;5053066;28;20631;-74
2021/12/03 01:08:04;;;;;;;9.95;7.40;;;;;;;;;;5053108;28;20165;-74
2021/12/03 01:10:30;;;;;;;7.82;7.18;;;;;;;;;;5035256;28;20650;-74
2021/12/03 01:12:56;;;;;;;8.20;7.50;;;;;;;;;;5053124;28;20196;-74
2021/12/03 01:15:24;;;;;;;8.48;7.75;;;;;;;;;;5052987;28;20564;-74
2021/12/03 01:17:50;;;;;;;10.07;7.50;;;;;;;;;;5052961;28;20176;-75
2021/12/03 01:20:16;;;;;;;7.88;7.07;;;;;;;;;;5053036;28;20168;-74
2021/12/03 01:22:45;;;;;;;7.40;6.82;;;;;;;;;;5052942;28;20527;-74
2021/12/03 01:25:12;;;;;;;11.45;8.00;;;;;;;;;;5053006;28;20219;-74
2021/12/03 01:27:38;;;;;;;9.48;7.55;;;;;;;;;;5054629;28;20566;-74
2021/12/03 01:30:05;;;;;;;8.38;7.43;;;;;;;;;;5057058;28;20176;-74
2021/12/03 01:32:31;;;;;;;10.88;7.90;;;;;;;;;;5056783;28;20173;-74
2021/12/03 01:34:57;;;;;;;7.72;7.10;;;;;;;;;;5056587;28;20204;-74
2021/12/03 01:37:23;;;;;;;7.22;6.63;;;;;;;;;;5056671;28;20183;-74
2021/12/03 01:39:50;;;;;;;8.43;7.10;;;;;;;;;;5056427;28;20635;-74
2021/12/03 01:42:16;;;;;;;15.00;8.15;;;;;;;;;;5038754;28;20414;-74
2021/12/03 01:44:42;;;;;;;7.55;6.90;;;;;;;;;;5056480;28;20176;-74
2021/12/03 01:47:08;;;;;;;7.10;6.50;;;;;;;;;;5056507;28;20168;-74
2021/12/03 01:49:34;;;;;;;10.38;8.10;;;;;;;;;;5056304;28;20254;-74
2021/12/03 01:52:00;;;;;;;11.57;9.50;;;;;;;;;;5056634;28;20185;-74
2021/12/03 01:54:26;;;;;;;10.02;8.20;;;;;;;;;;5056173;28;20204;-74
2021/12/03 01:56:52;;;;;;;11.70;7.85;;;;;;;;;;5056274;28;20222;-74
2021/12/03 01:59:18;;;;;;;12.07;8.50;;;;;;;;;;5056266;28;20169;-74
2021/12/03 02:01:45;;;;;;;11.97;7.60;;;;;;;;;;5056123;28;20916;-75
2021/12/03 02:04:11;;;;;;;9.27;8.20;;;;;;;;;;5056084;28;20483;-74
2021/12/03 02:06:37;;;;;;;15.68;8.60;;;;;;;;;;5056447;28;20590;-75
2021/12/03 02:09:04;;;;;;;8.23;7.43;;;;;;;;;;5056224;28;20187;-74
2021/12/03 02:11:30;;;;;;;8.35;7.65;;;;;;;;;;5056089;28;20169;-74
2021/12/03 02:13:56;;;;;;;14.93;8.35;;;;;;;;;;5038011;28;20181;-74
2021/12/03 02:16:22;;;;;;;12.30;8.80;;;;;;;;;;5055957;28;20172;-74
2021/12/03 02:18:48;;;;;;;9.52;7.78;;;;;;;;;;5055843;28;20909;-74
2021/12/03 02:21:15;;;;;;;11.13;8.50;;;;;;;;;;5055895;28;20225;-74
2021/12/03 02:23:42;;;;;;;11.80;8.57;;;;;;;;;;5055807;28;20173;-75
2021/12/03 02:26:09;;;;;;;9.75;8.50;;;;;;;;;;5055770;28;20167;-74
2021/12/03 02:28:40;;;;;;;8.43;7.72;;;;;;;;;;5055615;28;20168;-74
2021/12/03 02:31:07;;;;;;;9.02;8.13;;;;;;;;;;5055759;28;20675;-74
2021/12/03 02:33:36;;;;;;;10.02;8.07;;;;;;;;;;5055462;28;20587;-74
2021/12/03 02:36:02;;;;;;;9.20;7.03;;;;;;;;;;5055462;28;20212;-74
2021/12/03 02:38:28;;;;;;;9.23;8.27;;;;;;;;;;5055312;28;20168;-74
2021/12/03 02:40:55;;;;;;;10.35;9.00;;;;;;;;;;5055726;28;20176;-74
2021/12/03 02:43:21;;;;;;;8.57;7.80;;;;;;;;;;5055446;28;20645;-74
2021/12/03 02:45:48;;;;;;;14.00;8.18;;;;;;;;;;5055376;28;20168;-74
2021/12/03 02:48:14;;;;;;;10.57;8.40;;;;;;;;;;5055355;28;20177;-74
2021/12/03 02:50:40;;;;;;;8.98;8.05;;;;;;;;;;5037435;28;20189;-74
2021/12/03 02:53:06;;;;;;;8.82;7.90;;;;;;;;;;5055291;28;20175;-75
2021/12/03 02:55:32;;;;;;;8.50;7.70;;;;;;;;;;5055158;28;20678;-74
2021/12/03 02:57:58;;;;;;;9.18;7.53;;;;;;;;;;5055167;28;20403;-74
2021/12/03 03:00:25;;;;;;;8.23;7.53;;;;;;;;;;5055233;28;20623;-74
2021/12/03 03:02:52;;;;;;;8.95;8.13;;;;;;;;;;5055017;28;20191;-74
2021/12/03 03:05:19;;;;;;;14.02;8.70;;;;;;;;;;5054939;28;20539;-74
2021/12/03 03:07:45;;;;;;;16.33;7.93;;;;;;;;;;5037060;28;20181;-74
2021/12/03 03:10:14;;;;;;;9.52;8.50;;;;;;;;;;5054877;28;20254;-74
2021/12/03 03:12:42;;;;;;;12.00;8.10;;;;;;;;;;5055164;28;20180;-74
2021/12/03 03:15:09;;;;;;;8.93;8.13;;;;;;;;;;5054761;28;20212;-74
2021/12/03 03:17:36;;;;;;;9.25;8.35;;;;;;;;;;5054839;28;20533;-74
2021/12/03 03:20:03;;;;;;;11.50;8.68;;;;;;;;;;5054754;28;20238;-74
2021/12/03 03:22:30;;;;;;;10.75;8.25;;;;;;;;;;5054690;28;20243;-75
2021/12/03 03:25:02;;;;;;;8.95;8.15;;;;;;;;;;5054615;28;20187;-74
2021/12/03 03:27:29;;;;;;;15.30;8.45;;;;;;;;;;5054580;28;20221;-74
2021/12/03 03:29:55;;;;;;;9.05;8.18;;;;;;;;;;5054646;28;20169;-74
2021/12/03 03:32:22;;;;;;;9.75;7.72;;;;;;;;;;5054747;28;20168;-74
2021/12/03 03:34:48;;;;;;;9.23;8.32;;;;;;;;;;5054329;28;20240;-74
2021/12/03 03:37:14;;;;;;;14.63;7.45;;;;;;;;;;5054417;28;20173;-74
2021/12/03 03:39:40;;;;;;;9.60;8.70;;;;;;;;;;5054366;28;20179;-74
2021/12/03 03:42:07;;;;;;;8.93;7.63;;;;;;;;;;5054370;28;20650;-75
2021/12/03 03:44:34;;;;;;;16.55;8.35;;;;;;;;;;5054219;28;20616;-74
2021/12/03 03:47:01;;;;;;;9.75;8.10;;;;;;;;;;5054219;28;20168;-74
2021/12/03 03:49:27;;;;;;;12.88;7.85;;;;;;;;;;5053675;28;20227;-75
2021/12/03 03:51:54;;;;;;;8.75;7.80;;;;;;;;;;5053890;28;20222;-74
2021/12/03 03:54:19;;;;;;;9.77;7.40;;;;;;;;;;5054021;28;20204;-75
2021/12/03 03:56:46;;;;;;;8.70;7.63;;;;;;;;;;5053952;28;20657;-75
2021/12/03 03:59:16;;;;;;;10.13;8.50;;;;;;;;;;5053992;28;20460;-75
2021/12/03 04:01:42;;;;;;;12.60;8.88;;;;;;;;;;5053863;28;20255;-74
2021/12/03 04:04:08;;;;;;;12.02;8.20;;;;;;;;;;5054221;28;20182;-75
2021/12/03 04:06:34;;;;;;;10.75;7.63;;;;;;;;;;5053852;28;20202;-75
2021/12/03 04:09:00;;;;;;;9.30;7.93;;;;;;;;;;5053774;28;20175;-74
2021/12/03 04:11:26;;;;;;;8.53;7.70;;;;;;;;;;5053896;28;20615;-75
2021/12/03 04:13:52;;;;;;;8.37;7.57;;;;;;;;;;5053778;28;20412;-74
2021/12/03 04:16:19;;;;;;;10.13;9.23;;;;;;;;;;5053608;28;21056;-75
2021/12/03 04:18:45;;;;;;;8.55;7.45;;;;;;;;;;5053849;28;20464;-74
2021/12/03 04:21:10;;;;;;;10.60;7.85;;;;;;;;;;5053613;28;20255;-74
2021/12/03 04:23:36;;;;;;;8.33;7.50;;;;;;;;;;5053605;28;20259;-74
2021/12/03 04:26:03;;;;;;;12.80;7.85;;;;;;;;;;5053515;28;20400;-74
2021/12/03 04:28:29;;;;;;;8.43;7.60;;;;;;;;;;5053565;28;20191;-74
2021/12/03 04:30:55;;;;;;;7.50;7.00;;;;;;;;;;5053467;28;20240;-75
2021/12/03 04:33:22;;;;;;;10.48;8.10;;;;;;;;;;5053441;28;20177;-74
2021/12/03 04:35:48;;;;;;;12.80;8.00;;;;;;;;;;5053246;28;20211;-75
2021/12/03 04:38:14;;;;;;;8.88;7.85;;;;;;;;;;5053360;28;20172;-74
2021/12/03 04:40:41;;;;;;;9.38;8.13;;;;;;;;;;5053316;28;20267;-75
2021/12/03 04:43:07;;;;;;;10.80;8.57;;;;;;;;;;5053329;28;20171;-76
2021/12/03 04:45:34;;;;;;;14.25;8.38;;;;;;;;;;5053486;28;20596;-75
2021/12/03 04:48:01;;;;;;;8.18;7.57;;;;;;;;;;5053005;28;20230;-74
2021/12/03 04:50:29;;;;;;;23.73;14.90;;;;;;;;;;5053530;28;20188;-74
2021/12/03 04:52:55;;;;;;;14.00;11.80;;;;;;;;;;5053202;28;20248;-75
2021/12/03 04:55:21;;;;;;;30.83;14.90;;;;;;;;;;5053114;28;20212;-75
2021/12/03 04:57:50;;;;;;;12.02;10.35;;;;;;;;;;5053171;28;20169;-75
2021/12/03 05:00:19;;;;;;;13.75;8.82;;;;;;;;;;5053203;28;20217;-74
2021/12/03 05:02:46;;;;;;;11.65;8.52;;;;;;;;;;5055010;28;20171;-75
2021/12/03 05:05:12;;;;;;;9.82;8.85;;;;;;;;;;5057451;28;20632;-75
2021/12/03 05:10:05;;;;;;;12.80;8.10;;;;;;;;;;5057451;28;20192;-76
2021/12/03 05:12:31;;;;;;;10.23;8.60;;;;;;;;;;5057111;28;20410;-76
2021/12/03 05:14:57;;;;;;;10.43;8.23;;;;;;;;;;5057003;28;20200;-75
2021/12/03 05:17:23;;;;;;;9.07;8.18;;;;;;;;;;5057075;28;21016;-75
2021/12/03 05:19:49;;;;;;;8.97;8.10;;;;;;;;;;5056973;28;20303;-75
2021/12/03 05:22:15;;;;;;;14.27;8.75;;;;;;;;;;5056976;28;20426;-75
2021/12/03 05:24:45;;;;;;;9.40;8.40;;;;;;;;;;5056920;28;20168;-75
2021/12/03 05:27:11;;;;;;;17.55;9.00;;;;;;;;;;5056957;28;20167;-75
2021/12/03 05:29:37;;;;;;;7.85;7.28;;;;;;;;;;5056766;28;20611;-75
2021/12/03 05:32:03;;;;;;;9.30;7.70;;;;;;;;;;5056814;28;20187;-75
2021/12/03 05:34:29;;;;;;;10.20;7.95;;;;;;;;;;5056530;28;20890;-76
2021/12/03 05:36:55;;;;;;;14.60;8.20;;;;;;;;;;5056662;28;20579;-75
2021/12/03 05:39:21;;;;;;;9.85;8.30;;;;;;;;;;5056575;28;20176;-75
2021/12/03 05:41:47;;;;;;;14.10;11.40;;;;;;;;;;5056477;28;20173;-75
2021/12/03 05:44:13;;;;;;;13.30;10.50;;;;;;;;;;5056447;28;20179;-75
2021/12/03 05:46:40;;;;;;;11.88;9.13;;;;;;;;;;5056420;28;20411;-74
2021/12/03 05:49:06;;;;;;;14.00;9.90;;;;;;;;;;5056341;28;20224;-74
2021/12/03 05:51:32;;;;;;;9.27;7.90;;;;;;;;;;5056367;28;20168;-74
2021/12/03 05:53:58;;;;;;;12.70;8.65;;;;;;;;;;5056341;28;20252;-74
2021/12/03 05:56:24;;;;;;;9.77;7.82;;;;;;;;;;5056287;28;20211;-74
2021/12/03 05:58:50;;;;;;;11.20;8.77;;;;;;;;;;5056438;28;20169;-74
2021/12/03 06:01:17;;;;;;;10.57;8.52;;;;;;;;;;5056253;28;20255;-74
2021/12/03 06:03:43;;;;;;;12.00;9.90;;;;;;;;;;5056107;28;20180;-75
2021/12/03 06:06:09;;;;;;;21.60;13.18;;;;;;;;;;5056158;28;20622;-76
2021/12/03 06:08:35;;;;;;;26.77;13.80;;;;;;;;;;5056113;28;20172;-75
2021/12/03 06:11:01;;;;;;;24.03;12.77;;;;;;;;;;5055969;28;20446;-74
2021/12/03 06:13:27;;;;;;;15.73;12.13;;;;;;;;;;5055372;28;20399;-75
2021/12/03 06:15:54;;;;;;;20.30;14.10;;;;;;;;;;5055809;28;20510;-74
2021/12/03 06:18:20;;;;;;;18.02;12.02;;;;;;;;;;5055867;28;20464;-75
2021/12/03 06:20:46;;;;;;;13.15;10.13;;;;;;;;;;5055877;28;20268;-74
2021/12/03 06:23:12;;;;;;;12.07;8.60;;;;;;;;;;5055861;28;20172;-74
2021/12/03 06:25:38;;;;;;;11.67;9.43;;;;;;;;;;5055689;28;20403;-74
2021/12/03 06:28:04;;;;;;;14.95;10.90;;;;;;;;;;5056030;28;20865;-75
2021/12/03 06:30:30;;;;;;;16.13;12.18;;;;;;;;;;5055735;28;20611;-75
2021/12/03 06:32:56;;;;;;;13.05;11.07;;;;;;;;;;5055552;28;20172;-75
2021/12/03 06:35:22;;;;;;;21.42;12.45;;;;;;;;;;5055528;28;20275;-75
2021/12/03 06:37:49;;;;;;;17.48;12.43;;;;;;;;;;5055508;28;20667;-75
2021/12/03 06:40:19;;;;;;;20.77;13.38;;;;;;;;;;5055460;28;20173;-75
2021/12/03 06:42:45;;;;;;;22.60;12.90;;;;;;;;;;5055361;28;20160;-75
2021/12/03 06:45:12;;;;;;;20.17;12.23;;;;;;;;;;5055399;28;20161;-75
2021/12/03 06:47:38;;;;;;;19.08;11.52;;;;;;;;;;5055381;28;20169;-75
2021/12/03 06:50:04;;;;;;;17.07;11.07;;;;;;;;;;5055029;28;20231;-70
2021/12/03 06:52:32;;;;;;;19.17;11.15;;;;;;;;;;5055211;28;20885;-76
2021/12/03 06:55:01;;;;;;;16.50;10.60;;;;;;;;;;5055066;28;20200;-76
2021/12/03 06:57:28;;;;;;;10.98;9.65;;;;;;;;;;5055367;28;20512;-77
2021/12/03 06:59:54;;;;;;;8.60;7.70;;;;;;;;;;5055005;28;20172;-76
2021/12/03 07:02:20;;;;;;;14.60;8.63;;;;;;;;;;5055089;28;20173;-74
2021/12/03 07:04:46;;;;;;;8.57;7.30;;;;;;;;;;5055120;28;20230;-72
2021/12/03 07:07:12;;;;;;;10.07;8.43;;;;;;;;;;5055068;28;20758;-75
2021/12/03 07:09:38;;;;;;;7.95;7.22;;;;;;;;;;5054901;28;20407;-73
2021/12/03 07:12:04;;;;;;;8.45;7.25;;;;;;;;;;5055004;28;20191;-76
2021/12/03 07:14:30;;;;;;;8.55;7.65;;;;;;;;;;5055189;28;20204;-72
2021/12/03 07:16:59;;;;;;;8.35;7.60;;;;;;;;;;5055284;28;20184;-71
2021/12/03 07:19:24;;;;;;;9.27;8.00;;;;;;;;;;5055415;28;20218;-70
2021/12/03 07:21:50;;;;;;;14.43;8.47;;;;;;;;;;5054979;28;20259;-71
2021/12/03 07:24:16;;;;;;;14.40;8.43;;;;;;;;;;5054373;28;20402;-72
2021/12/03 07:26:42;;;;;;;11.03;8.40;;;;;;;;;;5036433;28;20995;-72
2021/12/03 07:29:08;;;;;;;12.77;9.47;;;;;;;;;;5054585;28;20425;-70
2021/12/03 07:31:35;;;;;;;11.00;9.43;;;;;;;;;;5054562;28;20407;-71
2021/12/03 07:34:01;;;;;;;10.82;9.48;;;;;;;;;;5054596;28;20395;-71
2021/12/03 07:36:27;;;;;;;11.45;9.52;;;;;;;;;;5054605;28;20208;-71
2021/12/03 07:38:53;;;;;;;14.15;9.35;;;;;;;;;;5054469;28;20175;-71
2021/12/03 07:41:19;;;;;;;10.45;9.25;;;;;;;;;;5054475;28;20171;-71
2021/12/03 07:43:45;;;;;;;13.43;9.27;;;;;;;;;;5054317;28;20631;-71
2021/12/03 07:46:11;;;;;;;9.95;8.93;;;;;;;;;;5054262;28;20951;-71
2021/12/03 07:48:37;;;;;;;10.32;9.32;;;;;;;;;;5054074;28;20768;-72
2021/12/03 07:51:04;;;;;;;10.48;9.32;;;;;;;;;;5054224;28;20161;-71
2021/12/03 07:53:29;;;;;;;11.05;9.25;;;;;;;;;;5054334;28;20247;-72
2021/12/03 07:55:56;;;;;;;10.10;9.07;;;;;;;;;;5054324;28;20676;-72
2021/12/03 07:58:22;;;;;;;15.43;10.00;;;;;;;;;;5054342;28;20391;-73
2021/12/03 08:00:48;;;;;;;11.95;9.65;;;;;;;;;;5054043;28;20623;-71
2021/12/03 08:03:15;;;;;;;11.65;9.30;;;;;;;;;;5054058;28;20176;-72
2021/12/03 08:05:41;;;;;;;14.95;10.13;;;;;;;;;;5054169;28;20199;-71
2021/12/03 08:08:07;;;;;;;14.00;10.50;;;;;;;;;;5053825;28;20168;-71
2021/12/03 08:10:34;;;;;;;20.53;10.07;;;;;;;;;;5053908;28;20404;-70
2021/12/03 08:13:01;;;;;;;11.05;9.63;;;;;;;;;;5054120;28;20407;-71
2021/12/03 08:15:27;;;;;;;10.65;9.52;;;;;;;;;;5054060;28;20644;-71
2021/12/03 08:17:53;;;;;;;13.50;8.70;;;;;;;;;;5053813;28;20164;-70
2021/12/03 08:20:19;;;;;;;10.25;9.07;;;;;;;;;;5053602;28;20176;-71
2021/12/03 08:22:45;;;;;;;10.60;8.73;;;;;;;;;;5053681;28;20172;-70
2021/12/03 08:25:11;;;;;;;8.63;7.63;;;;;;;;;;5053598;28;20498;-70
2021/12/03 08:27:39;;;;;;;8.70;7.80;;;;;;;;;;5053611;28;20256;-74
2021/12/03 08:30:06;;;;;;;8.27;7.15;;;;;;;;;;5053657;28;20165;-70
2021/12/03 08:32:32;;;;;;;7.45;6.95;;;;;;;;;;5053509;28;20184;-70
2021/12/03 08:34:58;;;;;;;7.72;6.97;;;;;;;;;;5053702;28;20235;-70
2021/12/03 08:37:25;;;;;;;6.07;5.78;;;;;;;;;;5053451;28;20160;-69
2021/12/03 08:39:51;;;;;;;6.68;6.10;;;;;;;;;;5053496;28;20177;-69
2021/12/03 08:42:18;;;;;;;5.80;5.30;;;;;;;;;;5053752;28;20259;-70
2021/12/03 08:44:44;;;;;;;5.78;5.35;;;;;;;;;;5053605;28;20251;-69
2021/12/03 08:47:10;;;;;;;6.97;5.50;;;;;;;;;;5053306;28;20250;-70
2021/12/03 08:49:47;;;;;;;4.93;4.73;;;;;;;;;;5053203;28;20466;-70
2021/12/03 08:54:53;;;;;;;7.72;6.00;;;;;;;;;;5053223;28;20200;-70
2021/12/03 08:57:32;;;;;;;5.22;4.88;;;;;;;;;;5053603;28;20180;-69
2021/12/03 09:00:00;;;;;;;5.53;5.00;;;;;;;;;;5053190;28;20599;-70
2021/12/03 09:02:26;;;;;;;5.75;5.40;;;;;;;;;;5053304;28;20403;-70
2021/12/03 09:04:52;;;;;;;6.03;5.17;;;;;;;;;;5053294;28;20218;-70
2021/12/03 09:07:18;;;;;;;5.30;4.70;;;;;;;;;;5053384;28;20395;-70
2021/12/03 09:09:44;;;;;;;5.63;4.87;;;;;;;;;;5053451;28;20512;-69
2021/12/03 09:12:11;;;;;;;6.63;4.57;;;;;;;;;;5053209;28;20382;-69
2021/12/03 09:14:48;;;;;;;5.00;4.53;;;;;;;;;;5053086;28;20941;-70
2021/12/03 09:22:45;;;;;;;5.33;4.93;;;;;;;;;;5053382;28;20403;-70
2021/12/03 09:25:11;;;;;;;5.10;4.80;;;;;;;;;;5052449;28;20472;-71
2021/12/03 09:27:37;;;;;;;3.97;3.80;;;;;;;;;;5052974;28;20395;-71
2021/12/03 09:30:05;;;;;;;5.10;4.80;;;;;;;;;;5053001;28;20402;-70
2021/12/03 09:32:32;;;;;;;4.40;4.30;;;;;;;;;;5052931;28;20889;-71
2021/12/03 09:34:59;;;;;;;4.30;4.20;;;;;;;;;;5052927;28;20976;-72
2021/12/03 09:37:25;;;;;;;4.27;4.10;;;;;;;;;;5053209;28;20399;-70
2021/12/03 09:39:51;;;;;;;4.13;3.93;;;;;;;;;;5052899;28;20399;-71
2021/12/03 09:42:21;;;;;;;4.90;4.77;;;;;;;;;;5052771;28;20904;-70
2021/12/03 09:44:50;;;;;;;4.70;4.30;;;;;;;;;;5052692;28;20395;-71
2021/12/03 09:47:16;;;;;;;4.20;4.10;;;;;;;;;;5052874;28;20845;-72
2021/12/03 09:49:43;;;;;;;5.90;4.23;;;;;;;;;;5055712;28;20478;-70
2021/12/03 09:52:22;;;;;;;4.67;4.37;;;;;;;;;;5056478;28;20892;-71
2021/12/03 09:54:54;;;;;;;3.93;3.73;;;;;;;;;;5056402;28;20478;-71
2021/12/03 09:57:31;;;;;;;4.77;4.40;;;;;;;;;;5056462;28;20407;-71
2021/12/03 10:02:55;;;;;;;4.70;4.43;;;;;;;;;;5056586;28;20410;-71
2021/12/03 10:13:21;;;;;;;3.97;3.77;;;;;;;;;;5056470;28;20960;-70
2021/12/03 10:16:05;;;;;;;7.43;4.60;;;;;;;;;;5056263;28;20474;-69
2021/12/03 10:18:44;;;;;;;4.33;4.10;;;;;;;;;;5055988;28;20877;-70
2021/12/03 10:29:58;;;;;;;4.70;3.80;;;;;;;;;;5056024;28;20406;-69
2021/12/03 10:32:35;;;;;;;5.40;3.67;;;;;;;;;;5054366;28;20426;-71
2021/12/03 10:35:27;;;;;;;4.37;4.10;;;;;;;;;;5055535;28;20961;-70
2021/12/03 10:40:38;;;;;;;3.70;3.40;;;;;;;;;;5055825;28;20406;-69
2021/12/03 10:46:12;;;;;;;4.77;4.30;;;;;;;;;;5024507;28;20431;-69
2021/12/03 10:54:41;;;;;;;6.97;4.40;;;;;;;;;;5055696;28;20425;-69
2021/12/03 11:02:35;;;;;;;4.17;4.03;;;;;;;;;;5055384;28;20403;-69
2021/12/03 11:13:22;;;;;;;3.70;3.60;;;;;;;;;;5055234;28;20410;-70
2021/12/03 12:16:13;;;;;;;5.83;5.40;;;;;;;;;;5053974;28;20465;-70
2021/12/03 12:35:54;;;;;;;4.30;3.90;;;;;;;;;;5053734;28;20403;-69
2021/12/03 13:08:26;;;;;;;4.57;4.17;;;;;;;;;;5053169;28;20753;-70
2021/12/03 13:32:55;;;;;;;3.85;3.75;;;;;;;;;;5056766;28;20250;-69
2021/12/03 14:43:24;;;;;;;5.70;4.03;;;;;;;;;;5055869;28;20781;-69
2021/12/03 14:57:15;;;;;;;5.20;3.77;;;;;;;;;;5031851;28;20453;-68
2021/12/03 15:00:07;;;;;;;4.93;4.53;;;;;;;;;;5055443;28;20418;-69
2021/12/03 15:05:17;;;;;;;3.33;3.23;;;;;;;;;;5055057;28;20168;-69
2021/12/03 15:07:45;;;;;;;3.50;3.40;;;;;;;;;;5055078;28;20381;-69
2021/12/03 15:10:20;;;;;;;3.55;3.25;;;;;;;;;;5055411;28;20173;-69
2021/12/03 15:21:47;;;;;;;3.70;3.60;;;;;;;;;;5054548;28;20172;-67
2021/12/03 15:29:38;;;;;;;3.10;3.00;;;;;;;;;;5054845;28;20542;-68
2021/12/03 15:34:43;;;;;;;3.17;2.95;;;;;;;;;;5054908;28;20650;-69
2021/12/03 15:37:37;;;;;;;3.40;3.30;;;;;;;;;;5054539;28;20172;-67
2021/12/03 15:40:21;;;;;;;3.65;3.50;;;;;;;;;;5054481;28;20157;-66
2021/12/03 16:04:23;;;;;;;5.50;5.28;;;;;;;;;;5054169;28;20245;-68
2021/12/03 16:52:07;;;;;;;3.40;3.30;;;;;;;;;;5053583;28;20461;-70
2021/12/03 16:56:59;;;;;;;3.40;3.20;;;;;;;;;;5054477;28;20176;-70
2021/12/03 16:59:25;;;;;;;2.83;2.83;;;;;;;;;;5059812;28;20849;-69
2021/12/03 17:02:10;;;;;;;3.67;3.00;;;;;;;;;;5059858;28;20374;-70
2021/12/03 17:04:58;;;;;;;3.00;3.00;;;;;;;;;;5041949;28;20171;-70
2021/12/03 17:10:58;;;;;;;3.55;3.33;;;;;;;;;;5026089;28;20183;-69
2021/12/03 17:58:34;;;;;;;4.00;3.70;;;;;;;;;;5059730;28;20176;-69
2021/12/03 18:01:10;;;;;;;4.90;4.50;;;;;;;;;;5059536;28;20233;-69
2021/12/03 18:06:57;;;;;;;9.18;5.13;;;;;;;;;;4997880;28;20723;-69
2021/12/03 18:09:59;;;;;;;5.55;5.20;;;;;;;;;;5052044;28;20220;-69
2021/12/03 18:52:17;;;;;;;7.35;6.65;;;;;;;;;;5055429;28;20203;-74
2021/12/03 18:57:21;;;;;;;5.07;4.73;;;;;;;;;;5055396;28;20465;-77
2021/12/03 18:59:56;;;;;;;6.15;5.80;;;;;;;;;;5055503;28;20845;-77
2021/12/03 19:02:24;;;;;;;5.80;5.40;;;;;;;;;;5055177;28;20238;-76
2021/12/03 19:05:02;;;;;;;6.20;5.72;;;;;;;;;;5055252;28;20184;-79
2021/12/03 19:07:42;;;;;;;5.22;4.93;;;;;;;;;;5055143;28;20631;-71
2021/12/03 19:10:15;;;;;;;5.85;5.10;;;;;;;;;;5055367;28;20196;-72
2021/12/03 19:12:44;;;;;;;6.20;5.70;;;;;;;;;;5037318;28;20263;-71
2021/12/03 19:15:11;;;;;;;5.00;4.72;;;;;;;;;;5055511;28;20196;-72
2021/12/03 19:17:41;;;;;;;6.35;5.55;;;;;;;;;;5054961;28;20159;-71
2021/12/03 19:20:11;;;;;;;5.50;5.20;;;;;;;;;;5054681;28;20241;-70
2021/12/03 19:22:37;;;;;;;7.97;5.95;;;;;;;;;;5054309;28;20191;-71
2021/12/03 19:25:04;;;;;;;7.30;5.65;;;;;;;;;;5054795;28;20164;-69
2021/12/03 19:27:30;;;;;;;7.63;5.55;;;;;;;;;;5054827;28;20619;-69
2021/12/03 19:29:58;;;;;;;5.15;4.88;;;;;;;;;;5054913;28;20169;-71
2021/12/03 19:32:31;;;;;;;5.55;5.20;;;;;;;;;;5054923;28;20195;-72
2021/12/03 19:34:57;;;;;;;6.93;6.22;;;;;;;;;;5054554;28;20635;-73
2021/12/03 19:37:26;;;;;;;5.45;5.10;;;;;;;;;;5054569;28;20181;-72
2021/12/03 19:39:52;;;;;;;5.55;5.30;;;;;;;;;;5054528;28;20527;-72
2021/12/03 19:42:21;;;;;;;7.38;6.78;;;;;;;;;;5054504;28;20176;-72
2021/12/03 19:44:55;;;;;;;7.93;5.45;;;;;;;;;;5054500;28;20250;-71
2021/12/03 19:47:29;;;;;;;6.63;6.15;;;;;;;;;;5054323;28;20550;-70
2021/12/03 19:53:07;;;;;;;7.18;6.57;;;;;;;;;;5020531;28;20246;-71
2021/12/03 19:55:37;;;;;;;5.93;5.53;;;;;;;;;;5054115;28;20203;-71
2021/12/03 19:58:03;;;;;;;7.20;6.65;;;;;;;;;;5054193;28;20168;-71
2021/12/03 20:00:29;;;;;;;7.70;7.20;;;;;;;;;;5054066;28;20477;-71
2021/12/03 20:02:55;;;;;;;9.43;8.63;;;;;;;;;;5054087;28;20178;-71
2021/12/03 20:05:21;;;;;;;7.00;6.47;;;;;;;;;;5054050;28;20431;-70
2021/12/03 20:07:47;;;;;;;7.10;6.60;;;;;;;;;;5053983;28;20200;-72
2021/12/03 20:10:16;;;;;;;11.07;8.32;;;;;;;;;;5053980;28;20741;-71
2021/12/03 20:12:42;;;;;;;9.50;8.13;;;;;;;;;;5053994;28;20165;-72
2021/12/03 20:15:10;;;;;;;7.18;6.57;;;;;;;;;;5053785;28;20269;-71
2021/12/03 20:17:49;;;;;;;7.93;7.13;;;;;;;;;;5053814;28;20169;-71
2021/12/03 20:20:16;;;;;;;9.43;7.55;;;;;;;;;;5054016;28;20172;-71
2021/12/03 20:23:06;;;;;;;7.35;6.85;;;;;;;;;;5053762;28;20157;-71
2021/12/03 20:33:05;;;;;;;6.72;6.18;;;;;;;;;;5053580;28;20172;-72
2021/12/03 20:38:19;;;;;;;6.35;5.85;;;;;;;;;;5053802;28;20161;-72
2021/12/03 20:40:52;;;;;;;5.88;5.45;;;;;;;;;;5053445;28;20169;-72
2021/12/03 21:10:04;;;;;;;5.10;4.90;;;;;;;;;;5053255;28;20639;-73
2021/12/03 21:12:41;;;;;;;5.80;5.50;;;;;;;;;;5053191;28;20177;-74
2021/12/03 21:15:21;;;;;;;5.60;5.40;;;;;;;;;;5053351;28;20555;-73
2021/12/03 21:18:09;;;;;;;6.22;5.72;;;;;;;;;;5053158;28;20615;-71
2021/12/03 21:20:56;;;;;;;8.90;6.85;;;;;;;;;;5051652;28;20161;-72
2021/12/03 21:23:23;;;;;;;5.93;5.50;;;;;;;;;;5052513;28;20172;-70
2021/12/03 21:25:54;;;;;;;6.15;5.75;;;;;;;;;;5052420;28;20214;-72
2021/12/03 21:43:36;;;;;;;6.05;5.65;;;;;;;;;;5052403;28;20165;-69
2021/12/03 21:46:02;;;;;;;6.85;6.20;;;;;;;;;;5056863;28;20177;-70
2021/12/03 21:48:28;;;;;;;10.33;6.73;;;;;;;;;;5035867;28;20227;-68
2021/12/03 21:50:54;;;;;;;8.13;6.67;;;;;;;;;;5036862;28;20832;-70
2021/12/03 21:53:20;;;;;;;4.83;4.50;;;;;;;;;;5036361;28;20403;-69
2021/12/03 21:55:48;;;;;;;6.20;5.70;;;;;;;;;;5036630;28;20471;-70
2021/12/03 21:58:15;;;;;;;4.45;4.30;;;;;;;;;;5036892;28;20400;-72
2021/12/03 22:00:41;;;;;;;10.43;7.68;;;;;;;;;;5036684;28;20168;-73
2021/12/03 22:03:07;;;;;;;6.30;5.80;;;;;;;;;;5036660;28;20219;-72
2021/12/03 22:05:34;;;;;;;7.97;6.22;;;;;;;;;;5036481;28;20212;-72
2021/12/03 22:08:00;;;;;;;6.45;5.82;;;;;;;;;;5036468;28;20648;-71
2021/12/03 22:10:26;;;;;;;9.75;6.78;;;;;;;;;;5036711;28;20579;-71
2021/12/03 22:12:52;;;;;;;11.15;7.90;;;;;;;;;;5036652;28;20179;-72
2021/12/03 22:15:18;;;;;;;11.93;6.23;;;;;;;;;;5036270;28;20552;-69
2021/12/03 22:17:44;;;;;;;8.05;7.00;;;;;;;;;;5036480;28;20404;-70
2021/12/03 22:20:10;;;;;;;12.85;6.63;;;;;;;;;;5036207;28;20252;-71
2021/12/03 22:22:36;;;;;;;6.30;6.00;;;;;;;;;;5036228;28;20191;-71
2021/12/03 22:25:03;;;;;;;14.73;8.23;;;;;;;;;;5036634;28;20177;-72
2021/12/03 22:27:29;;;;;;;11.07;7.75;;;;;;;;;;5036248;28;20457;-71
2021/12/03 22:29:55;;;;;;;29.58;13.30;;;;;;;;;;5036450;28;20180;-72
2021/12/03 22:32:21;;;;;;;9.30;6.80;;;;;;;;;;5036078;28;20169;-72
2021/12/03 22:34:48;;;;;;;6.53;5.97;;;;;;;;;;5035004;28;20488;-72
2021/12/03 22:37:14;;;;;;;7.78;6.90;;;;;;;;;;5034964;28;20173;-71
2021/12/03 22:39:40;;;;;;;9.80;8.17;;;;;;;;;;5035059;28;20166;-71
2021/12/03 22:42:06;;;;;;;15.43;9.15;;;;;;;;;;5034851;28;20894;-71
2021/12/03 22:44:32;;;;;;;9.45;8.43;;;;;;;;;;5034955;28;20628;-71
2021/12/03 22:49:35;;;;;;;9.37;8.30;;;;;;;;;;5034623;28;20311;-72
2021/12/03 22:52:10;;;;;;;12.55;9.55;;;;;;;;;;5035069;28;20396;-72
2021/12/03 22:54:43;;;;;;;19.70;10.57;;;;;;;;;;5034429;28;20283;-73
2021/12/03 22:57:10;;;;;;;16.92;10.35;;;;;;;;;;5034893;28;20299;-72
2021/12/03 22:59:37;;;;;;;19.80;11.10;;;;;;;;;;5034857;28;20230;-72
2021/12/03 23:02:06;;;;;;;19.02;10.98;;;;;;;;;;5034546;28;20308;-72
2021/12/03 23:04:33;;;;;;;20.05;11.90;;;;;;;;;;5034292;28;20171;-73
2021/12/03 23:06:59;;;;;;;36.75;14.75;;;;;;;;;;5034448;28;20256;-71